• Join FlightAware (Why Join?)
  • Login
  • US Flag 
01:48PM EDT


 

Airport Tracker/Info


-or-


 

Live Flight TrackerFlight Track Log ✈ DAL6035 ✈ 02-May-2013 ✈ KLGA - KMHT

Flight Track Log - Related Links

Times and Time Zones

All times are in EDT time to prevent confusion due to time zone crossing. See the DAL6035 flight status page for this flight to view local times or setup timezone preferences in your user account.

Time Position Orientation Groundspeed Altitude Reporting Facility
EDT Latitude Longitude Course Direction KTS MPH feet Rate Location/Type
03:39PM 40.7333 -73.8333 27° Northeast 185 213 2,000  Level New York TRACON
03:40PM 40.7667 -73.7833 49° Northeast 202 232 4,600 2,400 Climbing New York TRACON
03:41PM 41.0903 -73.6141 28° Northeast  Level FlightAware Approximate
03:41PM 40.8333 -73.7500 21° North 238 274 6,800  Level New York TRACON
03:42PM 41.1713 -73.5501 33° Northeast  Level FlightAware Approximate
03:42PM 40.8833 -73.7000 37° Northeast 256 295 9,000  Level New York TRACON
03:43PM 41.2501 -73.4812 33° Northeast  Level FlightAware Approximate
03:43PM 40.9500 -73.6667 21° North 266 306 11,100  Level New York TRACON
03:44PM 41.3283 -73.4256 27° Northeast  Level FlightAware Approximate
03:44PM 41.0775 -73.5828 26° Northeast 306 352 13,600  Level Boston Center
03:45PM 41.1508 -73.5344 26° Northeast 306 352 14,800 1,320 Climbing Boston Center
03:46PM 41.2411 -73.4753 26° Northeast 320 368 16,300 1,260 Climbing Boston Center
03:47PM 41.3081 -73.4322 26° Northeast 325 374 17,400 1,200 Climbing Boston Center
03:48PM 41.4067 -73.3644 27° Northeast 325 374 18,800 1,260 Climbing Boston Center
03:49PM 41.4864 -73.3075 28° Northeast 330 380 20,000 1,080 Climbing Boston Center
03:50PM 41.5600 -73.2114 44° Northeast 330 380 21,000 480 Climbing Boston Center
03:51PM 41.6417 -73.1261 38° Northeast 345 397 21,000  Level Boston Center
03:52PM 41.7503 -73.1275 359° North 350 403 21,000  Level Boston Center
03:53PM 41.8606 -73.1453 353° North 366 421 21,000  Level Boston Center
03:54PM 41.9728 -73.1661 352° North 384 442 21,000  Level Boston Center
03:55PM 42.0792 -73.1842 353° North 394 453 21,000 -120 Level Boston Center
03:56PM 42.1875 -73.1994 354° North 389 448 20,800 -660 Descending Boston Center
03:57PM 42.2942 -73.1053 33° Northeast 362 417 19,600 -900 Descending Boston Center
03:58PM 42.3617 -72.9936 51° Northeast 354 407 19,000 -300 Descending Boston Center
03:59PM 42.4267 -72.8900 50° Northeast 379 436 19,000  Level Boston Center
04:00PM 42.5019 -72.7667 50° Northeast 385 443 19,000 -600 Level Boston Center
04:01PM 42.5586 -72.6486 57° Northeast 380 437 17,800 -1,680 Descending Boston Center
04:02PM 42.6006 -72.5389 63° Northeast 367 422 15,700 -2,340 Descending Boston Center
04:03PM 42.6442 -72.4203 63° Northeast 352 405 13,200 -2,280 Descending Boston Center
04:04PM 42.6839 -72.3131 63° Northeast 335 386 11,200 -1,560 Descending Boston Center
04:05PM 42.7231 -72.1997 65° Northeast 306 352 10,100 -1,080 Descending Boston Center
04:06PM 42.7564 -72.1064 64° Northeast 284 327 9,100 -600 Descending Boston Center
04:07PM 42.7894 -72.0158 64° Northeast 273 314 9,000 -720 Descending Boston Center
04:08PM 42.7847 -71.9139 94° East 262 302 7,700 -1,380 Descending Boston Center
04:09PM 42.7906 -71.8147 85° East 262 302 6,300 -1,740 Descending Boston Center
04:10PM 42.8108 -71.7214 73° East 257 296 4,300 -1,800 Descending Boston Center
04:11PM 42.8311 -71.6333 73° East 252 290 2,700 -1,620 Descending Boston Center